Time;durP1;ratioP1;P1;durP2;ratioP2;P2;SDS_P1;SDS_P2;PMS_P1;PMS_P2;Temp;Humidity;BMP_temperature;BMP_pressure;BME280_temperature;BME280_humidity;BME280_pressure;Samples;Min_cycle;Max_cycle;Signal;HPM_P1;HPM_P2
2022/10/13 00:01:19;;;;;;;;;;;10.60;99.90;;;;;;4975035;28;1982;-61
2022/10/13 00:03:46;;;;;;;;;;;10.60;99.90;;;;;;4974570;28;1092;-61
2022/10/13 00:06:20;;;;;;;;;;;10.50;99.90;;;;;;4975215;28;1017;-60
2022/10/13 00:08:45;;;;;;;;;;;10.60;99.90;;;;;;4972970;28;1101;-61
2022/10/13 00:11:14;;;;;;;;;;;10.50;99.90;;;;;;4974274;28;1176;-60
2022/10/13 00:13:40;;;;;;;;;;;10.50;99.90;;;;;;4975143;28;969;-60
2022/10/13 00:16:06;;;;;;;;;;;10.50;99.90;;;;;;4974249;28;885;-61
2022/10/13 00:18:31;;;;;;;;;;;10.50;99.90;;;;;;4974687;28;1247;-61
2022/10/13 00:20:57;;;;;;;;;;;10.50;99.90;;;;;;4974423;28;1908;-60
2022/10/13 00:23:23;;;;;;;;;;;10.50;99.90;;;;;;4974425;28;1012;-61
2022/10/13 00:25:49;;;;;;;;;;;10.50;99.90;;;;;;4974833;28;966;-60
2022/10/13 00:28:16;;;;;;;;;;;10.50;99.90;;;;;;4974462;28;1105;-61
2022/10/13 00:30:42;;;;;;;;;;;10.50;99.90;;;;;;4973917;28;1265;-61
2022/10/13 00:33:08;;;;;;;;;;;10.50;99.90;;;;;;4973995;28;824;-60
2022/10/13 00:35:38;;;;;;;;;;;10.50;99.90;;;;;;4973818;28;1709;-61
2022/10/13 00:38:05;;;;;;;;;;;10.50;99.90;;;;;;4973803;28;1160;-61
2022/10/13 00:40:31;;;;;;;;;;;10.50;99.90;;;;;;4974479;28;1915;-61
2022/10/13 00:42:56;;;;;;;;;;;10.50;99.90;;;;;;4976911;28;1596;-61
2022/10/13 00:45:24;;;;;;;;;;;10.50;99.90;;;;;;4973843;28;866;-61
2022/10/13 00:47:55;;;;;;;;;;;10.50;99.90;;;;;;4974046;28;1507;-60
2022/10/13 00:50:24;;;;;;;;;;;10.50;99.90;;;;;;4974456;28;1068;-61
2022/10/13 00:52:54;;;;;;;;;;;10.50;99.90;;;;;;4973724;28;1048;-60
2022/10/13 00:55:24;;;;;;;;;;;10.50;99.90;;;;;;4974098;28;1160;-61
2022/10/13 00:57:53;;;;;;;;;;;10.50;99.90;;;;;;4973685;28;1177;-60
2022/10/13 01:00:24;;;;;;;;;;;10.50;99.90;;;;;;4974029;28;1977;-61
2022/10/13 01:02:50;;;;;;;;;;;10.50;99.90;;;;;;4973833;28;1068;-61
2022/10/13 01:05:17;;;;;;;;;;;10.50;99.90;;;;;;4973359;28;1191;-60
2022/10/13 01:07:43;;;;;;;;;;;10.50;99.90;;;;;;4974208;28;993;-61
2022/10/13 01:10:09;;;;;;;;;;;10.50;99.90;;;;;;4974161;28;1203;-60
2022/10/13 01:12:47;;;;;;;;;;;10.50;99.90;;;;;;4973034;28;1128;-61
2022/10/13 01:15:12;;;;;;;;;;;10.40;99.90;;;;;;4973596;28;1060;-60
2022/10/13 01:17:46;;;;;;;;;;;10.50;99.90;;;;;;4973920;28;993;-60
2022/10/13 01:20:12;;;;;;;;;;;10.50;99.90;;;;;;4973472;28;1902;-60
2022/10/13 01:22:58;;;;;;;;;;;10.50;99.90;;;;;;4973883;28;1132;-60
2022/10/13 01:25:43;;;;;;;;;;;10.50;99.90;;;;;;4973658;28;1119;-61
2022/10/13 01:28:15;;;;;;;;;;;10.50;99.90;;;;;;4973148;28;1214;-61
2022/10/13 01:30:45;;;;;;;;;;;10.50;99.90;;;;;;4972194;28;1212;-61
2022/10/13 01:33:16;;;;;;;;;;;10.50;99.90;;;;;;4972974;28;808;-60
2022/10/13 01:35:52;;;;;;;;;;;10.50;99.90;;;;;;4968665;28;1694;-60
2022/10/13 01:38:19;;;;;;;;;;;10.50;99.90;;;;;;4973885;28;997;-61
2022/10/13 01:40:54;;;;;;;;;;;10.50;99.90;;;;;;4972364;28;1922;-61
2022/10/13 01:43:23;;;;;;;;;;;10.50;99.90;;;;;;4964021;28;1636;-61
2022/10/13 01:45:54;;;;;;;;;;;10.50;99.90;;;;;;4958897;28;1008;-60
2022/10/13 01:48:19;;;;;;;;;;;10.50;99.90;;;;;;4964548;28;1133;-60
2022/10/13 01:50:51;;;;;;;;;;;10.50;99.90;;;;;;4977780;28;1040;-61
2022/10/13 01:53:17;;;;;;;;;;;10.50;99.90;;;;;;4976398;28;1037;-60
2022/10/13 01:55:47;;;;;;;;;;;10.50;99.90;;;;;;4976673;28;1020;-60
2022/10/13 01:58:13;;;;;;;;;;;10.40;99.90;;;;;;4977248;28;1203;-60
2022/10/13 02:00:42;;;;;;;;;;;10.40;99.90;;;;;;4977480;28;1977;-60
2022/10/13 02:03:14;;;;;;;;;;;10.40;99.90;;;;;;4976266;28;1029;-60
2022/10/13 02:05:48;;;;;;;;;;;10.30;99.90;;;;;;4976980;28;1180;-60
2022/10/13 02:08:13;;;;;;;;;;;10.40;99.90;;;;;;4976572;28;885;-60
2022/10/13 02:10:43;;;;;;;;;;;10.30;99.90;;;;;;4977123;28;1053;-60
2022/10/13 02:13:10;;;;;;;;;;;10.30;99.90;;;;;;4977347;28;1080;-60
2022/10/13 02:15:42;;;;;;;;;;;10.30;99.90;;;;;;4976102;28;1136;-60
2022/10/13 02:18:09;;;;;;;;;;;10.30;99.90;;;;;;4976890;28;1026;-60
2022/10/13 02:20:35;;;;;;;;;;;10.30;99.90;;;;;;4976938;28;1906;-60
2022/10/13 02:23:03;;;;;;;;;;;10.30;99.90;;;;;;4976175;28;1160;-60
2022/10/13 02:25:29;;;;;;;;;;;10.30;99.90;;;;;;4976865;28;1064;-60
2022/10/13 02:27:58;;;;;;;;;;;10.30;99.90;;;;;;4976679;28;1321;-60
2022/10/13 02:30:28;;;;;;;;;;;10.30;99.90;;;;;;4976549;28;1056;-61
2022/10/13 02:32:54;;;;;;;;;;;10.30;99.90;;;;;;4976301;28;1191;-60
2022/10/13 02:35:20;;;;;;;;;;;10.20;99.90;;;;;;4976576;28;1486;-60
2022/10/13 02:37:46;;;;;;;;;;;10.20;99.90;;;;;;4976086;28;1052;-60
2022/10/13 02:40:11;;;;;;;;;;;10.30;99.90;;;;;;4975161;28;1914;-60
2022/10/13 02:42:37;;;;;;;;;;;10.20;99.90;;;;;;4971608;28;1307;-61
2022/10/13 02:45:03;;;;;;;;;;;10.20;99.90;;;;;;4956746;29;1000;-61
2022/10/13 02:47:29;;;;;;;;;;;10.20;99.90;;;;;;4958459;28;1188;-60
2022/10/13 02:49:54;;;;;;;;;;;10.20;99.90;;;;;;4976639;28;1235;-60
2022/10/13 02:52:20;;;;;;;;;;;10.20;99.90;;;;;;4975920;28;834;-61
2022/10/13 02:54:47;;;;;;;;;;;10.20;99.90;;;;;;4975936;28;1014;-60
2022/10/13 02:57:13;;;;;;;;;;;10.20;99.90;;;;;;4975804;28;787;-60
2022/10/13 02:59:42;;;;;;;;;;;10.20;99.90;;;;;;4976165;28;1168;-60
2022/10/13 03:02:07;;;;;;;;;;;10.20;99.90;;;;;;4974445;28;1922;-60
2022/10/13 03:04:33;;;;;;;;;;;10.10;99.90;;;;;;4975444;28;1232;-60
2022/10/13 03:07:01;;;;;;;;;;;10.10;99.90;;;;;;4976090;28;1137;-60
2022/10/13 03:09:27;;;;;;;;;;;10.20;99.90;;;;;;4975871;28;1063;-60
2022/10/13 03:11:53;;;;;;;;;;;10.10;99.90;;;;;;4975525;28;1036;-60
2022/10/13 03:14:18;;;;;;;;;;;10.20;99.90;;;;;;4976233;28;858;-61
2022/10/13 03:16:44;;;;;;;;;;;10.20;99.90;;;;;;4975622;28;1140;-60
2022/10/13 03:19:11;;;;;;;;;;;10.20;99.90;;;;;;4975510;28;1009;-60
2022/10/13 03:21:37;;;;;;;;;;;10.10;99.90;;;;;;4990714;28;1910;-60
2022/10/13 03:24:04;;;;;;;;;;;10.10;99.90;;;;;;4975502;28;1101;-60
2022/10/13 03:26:30;;;;;;;;;;;10.10;99.90;;;;;;4974528;28;1178;-61
2022/10/13 03:28:56;;;;;;;;;;;10.10;99.90;;;;;;4975845;28;1084;-60
2022/10/13 03:31:22;;;;;;;;;;;10.10;99.90;;;;;;4975851;28;1005;-61
2022/10/13 03:33:47;;;;;;;;;;;10.10;99.90;;;;;;4974909;28;1057;-60
2022/10/13 03:36:13;;;;;;;;;;;10.10;99.90;;;;;;4975446;28;1616;-60
2022/10/13 03:38:40;;;;;;;;;;;10.10;99.90;;;;;;4975615;28;1235;-60
2022/10/13 03:41:10;;;;;;;;;;;10.10;99.90;;;;;;4974564;28;1911;-60
2022/10/13 03:43:36;;;;;;;;;;;10.10;99.90;;;;;;4975228;28;1584;-60
2022/10/13 03:46:03;;;;;;;;;;;10.10;99.90;;;;;;4975388;28;997;-60
2022/10/13 03:48:28;;;;;;;;;;;10.10;99.90;;;;;;4974746;28;874;-61
2022/10/13 03:50:54;;;;;;;;;;;10.10;99.90;;;;;;4975663;28;912;-60
2022/10/13 03:53:20;;;;;;;;;;;10.10;99.90;;;;;;4975142;28;1242;-61
2022/10/13 03:55:48;;;;;;;;;;;10.20;99.90;;;;;;4974671;28;1025;-61
2022/10/13 03:58:14;;;;;;;;;;;10.10;99.90;;;;;;4975514;28;909;-60
2022/10/13 04:00:41;;;;;;;;;;;10.10;99.90;;;;;;4973843;28;1918;-61
2022/10/13 04:03:07;;;;;;;;;;;10.10;99.90;;;;;;4975384;28;869;-60
2022/10/13 04:05:33;;;;;;;;;;;10.10;99.90;;;;;;4975256;28;798;-60
2022/10/13 04:07:58;;;;;;;;;;;10.20;99.90;;;;;;4973225;28;1092;-60
2022/10/13 04:10:26;;;;;;;;;;;10.30;99.90;;;;;;4974763;28;1140;-60
2022/10/13 04:12:51;;;;;;;;;;;10.20;99.90;;;;;;4975105;28;961;-60
2022/10/13 04:15:17;;;;;;;;;;;10.20;99.90;;;;;;4974101;28;997;-60
2022/10/13 04:17:42;;;;;;;;;;;10.20;99.90;;;;;;4975171;28;1004;-60
2022/10/13 04:20:08;;;;;;;;;;;10.20;99.90;;;;;;4974600;28;1200;-60
2022/10/13 04:22:34;;;;;;;;;;;10.20;99.90;;;;;;4974037;28;1970;-60
2022/10/13 04:25:00;;;;;;;;;;;9.50;99.90;;;;;;4974670;28;1288;-60
2022/10/13 04:27:25;;;;;;;;;;;10.20;99.90;;;;;;4974562;28;1188;-60
2022/10/13 04:29:51;;;;;;;;;;;10.20;99.90;;;;;;4974339;28;981;-60
2022/10/13 04:32:17;;;;;;;;;;;10.30;99.90;;;;;;4974244;28;1017;-60
2022/10/13 04:34:43;;;;;;;;;;;10.30;99.90;;;;;;4974444;28;1512;-60
2022/10/13 04:37:09;;;;;;;;;;;10.30;99.90;;;;;;4973345;28;1223;-60
2022/10/13 04:39:34;;;;;;;;;;;10.30;99.90;;;;;;4973042;28;969;-60
2022/10/13 04:42:00;;;;;;;;;;;10.30;99.90;;;;;;4974541;28;1911;-61
2022/10/13 04:44:25;;;;;;;;;;;10.40;99.90;;;;;;4973487;28;1683;-60
2022/10/13 04:46:51;;;;;;;;;;;10.40;99.90;;;;;;4974318;28;1080;-60
2022/10/13 04:49:17;;;;;;;;;;;10.40;99.90;;;;;;4974574;28;1265;-60
2022/10/13 04:51:42;;;;;;;;;;;10.50;99.90;;;;;;4973464;28;871;-60
2022/10/13 04:54:08;;;;;;;;;;;10.30;99.90;;;;;;4973806;28;1219;-60
2022/10/13 04:56:35;;;;;;;;;;;10.30;99.90;;;;;;4974065;28;1081;-60
2022/10/13 04:59:01;;;;;;;;;;;10.30;99.90;;;;;;4973820;28;1084;-60
2022/10/13 05:01:27;;;;;;;;;;;10.30;99.90;;;;;;4972457;28;1973;-61
2022/10/13 05:03:54;;;;;;;;;;;10.20;99.90;;;;;;4973250;28;1227;-60
2022/10/13 05:06:22;;;;;;;;;;;10.20;99.90;;;;;;4974331;28;874;-60
2022/10/13 05:08:51;;;;;;;;;;;10.20;99.90;;;;;;4981025;28;1121;-60
2022/10/13 05:11:18;;;;;;;;;;;10.20;99.90;;;;;;4989522;28;1215;-60
2022/10/13 05:13:45;;;;;;;;;;;10.20;99.90;;;;;;4974147;28;1001;-60
2022/10/13 05:16:12;;;;;;;;;;;10.10;99.90;;;;;;4973724;28;859;-60
2022/10/13 05:18:38;;;;;;;;;;;10.20;99.90;;;;;;4972816;28;1215;-60
2022/10/13 05:21:05;;;;;;;;;;;10.10;99.90;;;;;;4973560;28;1907;-60
2022/10/13 05:23:32;;;;;;;;;;;10.20;99.90;;;;;;4973831;28;1202;-60
2022/10/13 05:26:00;;;;;;;;;;;10.10;99.90;;;;;;4973529;28;969;-60
2022/10/13 05:28:26;;;;;;;;;;;10.10;99.90;;;;;;4973910;28;803;-60
2022/10/13 05:30:51;;;;;;;;;;;10.10;99.90;;;;;;4973432;28;1199;-60
2022/10/13 05:33:17;;;;;;;;;;;10.10;99.90;;;;;;4973196;28;822;-60
2022/10/13 05:35:43;;;;;;;;;;;10.10;99.90;;;;;;4973450;28;1648;-60
2022/10/13 05:38:09;;;;;;;;;;;10.10;99.90;;;;;;4973453;28;1183;-60
2022/10/13 05:40:34;;;;;;;;;;;10.10;99.90;;;;;;4972888;28;1918;-61
2022/10/13 05:43:02;;;;;;;;;;;10.10;99.90;;;;;;4965711;28;1608;-60
2022/10/13 05:45:31;;;;;;;;;;;10.10;99.90;;;;;;4954037;29;962;-60
2022/10/13 05:47:56;;;;;;;;;;;10.10;99.90;;;;;;4966928;28;1140;-60
2022/10/13 05:50:22;;;;;;;;;;;10.10;99.90;;;;;;4973879;28;989;-60
2022/10/13 05:52:48;;;;;;;;;;;10.10;99.90;;;;;;4973455;28;1028;-60
2022/10/13 05:55:14;;;;;;;;;;;10.10;99.90;;;;;;4972809;28;1207;-61
2022/10/13 05:57:41;;;;;;;;;;;10.10;99.90;;;;;;4973636;28;1017;-60
2022/10/13 06:00:08;;;;;;;;;;;10.10;99.90;;;;;;4972395;28;873;-60
2022/10/13 06:02:42;;;;;;;;;;;10.10;99.90;;;;;;4973254;28;1906;-60
2022/10/13 06:05:10;;;;;;;;;;;10.10;99.90;;;;;;4972035;28;1248;-60
2022/10/13 06:07:36;;;;;;;;;;;10.10;99.90;;;;;;4972702;28;1132;-60
2022/10/13 06:10:02;;;;;;;;;;;10.10;99.90;;;;;;4973865;28;1021;-60
2022/10/13 06:12:28;;;;;;;;;;;10.10;99.90;;;;;;4973555;28;1065;-60
2022/10/13 06:14:54;;;;;;;;;;;10.10;99.90;;;;;;4972424;28;1183;-60
2022/10/13 06:17:19;;;;;;;;;;;10.10;99.90;;;;;;4973496;28;1044;-60
2022/10/13 06:19:46;;;;;;;;;;;10.20;99.90;;;;;;4973501;28;1045;-61
2022/10/13 06:22:11;;;;;;;;;;;10.20;99.90;;;;;;4971997;28;1910;-60
2022/10/13 06:24:37;;;;;;;;;;;10.10;99.90;;;;;;4973548;28;1076;-61
2022/10/13 06:27:05;;;;;;;;;;;10.10;99.90;;;;;;4973363;28;1224;-61
2022/10/13 06:29:32;;;;;;;;;;;10.20;99.90;;;;;;4972130;28;894;-61
2022/10/13 06:31:57;;;;;;;;;;;10.20;99.90;;;;;;4975880;28;1148;-61
2022/10/13 06:34:23;;;;;;;;;;;10.20;99.90;;;;;;4976391;28;1477;-61
2022/10/13 06:36:49;;;;;;;;;;;10.20;99.90;;;;;;4975522;28;1131;-61
2022/10/13 06:39:14;;;;;;;;;;;10.30;99.90;;;;;;4976669;28;850;-61
2022/10/13 06:41:40;;;;;;;;;;;10.20;99.90;;;;;;4976066;28;1918;-61
2022/10/13 06:44:06;;;;;;;;;;;10.20;99.90;;;;;;4958924;28;1683;-61
2022/10/13 06:46:31;;;;;;;;;;;10.20;99.90;;;;;;4957191;29;892;-61
2022/10/13 06:48:57;;;;;;;;;;;10.20;99.90;;;;;;4962901;28;1207;-61
2022/10/13 06:51:23;;;;;;;;;;;10.20;99.90;;;;;;4975798;28;1005;-61
2022/10/13 06:53:49;;;;;;;;;;;10.30;99.90;;;;;;4976845;28;1033;-61
2022/10/13 06:56:20;;;;;;;;;;;10.30;99.90;;;;;;4976000;28;1005;-61
2022/10/13 06:58:47;;;;;;;;;;;10.40;99.90;;;;;;4970897;28;1161;-61
2022/10/13 07:01:13;;;;;;;;;;;10.40;99.90;;;;;;4958413;28;1914;-61
2022/10/13 07:03:39;;;;;;;;;;;10.50;99.90;;;;;;4965125;28;1237;-61
2022/10/13 07:06:05;;;;;;;;;;;10.50;99.90;;;;;;4966719;28;1202;-61
2022/10/13 07:08:32;;;;;;;;;;;10.50;99.90;;;;;;4964637;28;1242;-61
2022/10/13 07:10:58;;;;;;;;;;;10.60;99.90;;;;;;4962198;28;1297;-61
2022/10/13 07:13:24;;;;;;;;;;;10.60;99.90;;;;;;4966922;28;1229;-61
2022/10/13 07:15:50;;;;;;;;;;;10.60;99.90;;;;;;4962734;28;1261;-61
2022/10/13 07:18:16;;;;;;;;;;;10.70;99.90;;;;;;4956170;29;1032;-61
2022/10/13 07:20:41;;;;;;;;;;;10.80;99.90;;;;;;4967501;28;1983;-61
2022/10/13 07:23:07;;;;;;;;;;;10.80;99.90;;;;;;4964056;28;1233;-61
2022/10/13 07:25:33;;;;;;;;;;;10.90;99.90;;;;;;4963404;28;1249;-61
2022/10/13 07:27:59;;;;;;;;;;;10.90;99.90;;;;;;4968101;28;1237;-61
2022/10/13 07:30:25;;;;;;;;;;;11.00;99.90;;;;;;4976201;28;1016;-61
2022/10/13 07:32:50;;;;;;;;;;;11.00;99.90;;;;;;4974784;28;1168;-61
2022/10/13 07:35:16;;;;;;;;;;;11.10;99.90;;;;;;4975211;28;1578;-61
2022/10/13 07:37:42;;;;;;;;;;;11.10;99.90;;;;;;4970310;28;1265;-61
2022/10/13 07:40:08;;;;;;;;;;;11.10;99.90;;;;;;4964736;28;1324;-61
2022/10/13 07:42:34;;;;;;;;;;;11.20;99.90;;;;;;4965612;28;1972;-61
2022/10/13 07:45:00;;;;;;;;;;;11.30;99.90;;;;;;4975707;28;1181;-61
2022/10/13 07:47:27;;;;;;;;;;;11.40;99.90;;;;;;4975057;28;1160;-61
2022/10/13 07:49:54;;;;;;;;;;;11.40;99.90;;;;;;4974055;28;823;-61
2022/10/13 07:52:20;;;;;;;;;;;11.40;99.90;;;;;;4975066;28;1121;-61
2022/10/13 07:54:46;;;;;;;;;;;11.40;99.90;;;;;;4974910;28;969;-61
2022/10/13 07:57:12;;;;;;;;;;;11.40;99.90;;;;;;4974979;28;1072;-61
2022/10/13 07:59:37;;;;;;;;;;;11.50;99.90;;;;;;4974959;28;1183;-61
2022/10/13 08:02:03;;;;;;;;;;;11.50;99.90;;;;;;4975056;28;1969;-62
2022/10/13 08:04:30;;;;;;;;;;;11.60;99.90;;;;;;4973991;28;1411;-61
2022/10/13 08:06:55;;;;;;;;;;;11.60;99.90;;;;;;4974374;28;1064;-61
2022/10/13 08:09:21;;;;;;;;;;;11.60;99.90;;;;;;4974665;28;1128;-61
2022/10/13 08:11:47;;;;;;;;;;;11.70;99.90;;;;;;4974870;28;1060;-61
2022/10/13 08:14:12;;;;;;;;;;;11.70;99.90;;;;;;4974126;28;904;-61
2022/10/13 08:16:40;;;;;;;;;;;11.70;99.90;;;;;;4975213;28;966;-61
2022/10/13 08:19:06;;;;;;;;;;;11.80;99.90;;;;;;4974765;28;1191;-61
2022/10/13 08:21:32;;;;;;;;;;;11.80;99.90;;;;;;4985115;28;1907;-61
2022/10/13 08:23:57;;;;;;;;;;;11.80;99.90;;;;;;4982821;28;1199;-61
2022/10/13 08:26:25;;;;;;;;;;;11.80;99.90;;;;;;4985861;28;1211;-61
2022/10/13 08:28:51;;;;;;;;;;;11.80;99.90;;;;;;4973955;28;1008;-61
2022/10/13 08:31:17;;;;;;;;;;;11.80;99.90;;;;;;4974702;28;1029;-61
2022/10/13 08:33:46;;;;;;;;;;;11.80;99.90;;;;;;4974952;28;1036;-61
2022/10/13 08:36:14;;;;;;;;;;;11.80;99.90;;;;;;4972896;28;1620;-61
2022/10/13 08:38:40;;;;;;;;;;;11.80;99.90;;;;;;4974745;28;1120;-61
2022/10/13 08:41:13;;;;;;;;;;;11.90;99.90;;;;;;4974410;28;1903;-61
2022/10/13 08:43:42;;;;;;;;;;;11.90;99.90;;;;;;4972893;28;1678;-61
2022/10/13 08:46:08;;;;;;;;;;;12.00;99.90;;;;;;4974702;28;1001;-61
2022/10/13 08:48:37;;;;;;;;;;;12.00;99.90;;;;;;4974732;28;1052;-61
2022/10/13 08:51:06;;;;;;;;;;;12.00;99.90;;;;;;4973616;28;1057;-61
2022/10/13 08:53:40;;;;;;;;;;;12.10;99.90;;;;;;4973544;28;1356;-61
2022/10/13 08:56:08;;;;;;;;;;;12.00;99.90;;;;;;4973705;28;982;-61
2022/10/13 08:58:35;;;;;;;;;;;12.00;99.90;;;;;;4974116;28;818;-61
2022/10/13 09:01:17;;;;;;;;;;;12.00;99.90;;;;;;4974032;28;1976;-61
2022/10/13 09:04:08;;;;;;;;;;;12.00;99.90;;;;;;4973100;28;1113;-61
2022/10/13 09:06:36;;;;;;;;;;;11.90;99.90;;;;;;4974526;28;1029;-61
2022/10/13 09:09:04;;;;;;;;;;;11.90;99.90;;;;;;4974391;28;993;-61
2022/10/13 09:11:33;;;;;;;;;;;11.90;99.90;;;;;;4972942;28;1164;-61
2022/10/13 09:14:01;;;;;;;;;;;11.90;99.90;;;;;;4974249;28;985;-61
2022/10/13 09:16:28;;;;;;;;;;;11.90;99.90;;;;;;4974027;28;1119;-61
2022/10/13 09:18:54;;;;;;;;;;;11.90;99.90;;;;;;4972847;28;1148;-61
2022/10/13 09:21:21;;;;;;;;;;;11.90;99.90;;;;;;4989924;28;1910;-61
2022/10/13 09:23:48;;;;;;;;;;;11.90;99.90;;;;;;4993601;28;1012;-61
2022/10/13 09:26:17;;;;;;;;;;;11.90;99.90;;;;;;4992202;28;826;-61
2022/10/13 09:28:42;;;;;;;;;;;11.90;99.90;;;;;;4974704;28;1151;-61
2022/10/13 09:31:16;;;;;;;;;;;11.90;99.90;;;;;;4970251;28;2945;-61
2022/10/13 09:33:42;;;;;;;;;;;11.90;99.90;;;;;;4971796;28;3234;-62
2022/10/13 09:36:10;;;;;;;;;;;12.00;99.90;;;;;;4973213;28;2821;-61
2022/10/13 09:38:36;;;;;;;;;;;12.00;99.90;;;;;;4972785;28;1101;-61
2022/10/13 09:41:04;;;;;;;;;;;12.00;99.90;;;;;;4972385;28;3166;-61
2022/10/13 09:43:41;;;;;;;;;;;12.10;99.90;;;;;;4973371;28;1599;-61
2022/10/13 09:46:11;;;;;;;;;;;12.00;99.90;;;;;;4972290;28;1200;-61
2022/10/13 09:48:41;;;;;;;;;;;12.10;99.90;;;;;;4973475;28;961;-61
2022/10/13 09:51:26;;;;;;;;;;;12.10;99.90;;;;;;4973271;28;2794;-61
2022/10/13 09:53:51;;;;;;;;;;;12.00;99.90;;;;;;4972980;28;1013;-61
2022/10/13 09:56:21;;;;;;;;;;;12.10;99.90;;;;;;4972935;28;1204;-61
2022/10/13 09:58:52;;;;;;;;;;;12.10;99.90;;;;;;4973303;28;1143;-61
2022/10/13 10:01:21;;;;;;;;;;;12.10;99.90;;;;;;4972841;28;1911;-61
2022/10/13 10:03:48;;;;;;;;;;;12.20;99.90;;;;;;4972681;28;1168;-61
2022/10/13 10:06:15;;;;;;;;;;;12.30;99.90;;;;;;4966551;28;1241;-61
2022/10/13 10:08:57;;;;;;;;;;;12.30;99.90;;;;;;4967775;28;1383;-62
2022/10/13 10:11:28;;;;;;;;;;;12.40;99.90;;;;;;4971585;28;1237;-61
2022/10/13 10:13:54;;;;;;;;;;;12.50;99.90;;;;;;4976394;28;1136;-62
2022/10/13 10:16:29;;;;;;;;;;;12.60;99.90;;;;;;4976375;28;1230;-62
2022/10/13 10:18:59;;;;;;;;;;;12.50;99.90;;;;;;4976932;28;1147;-62
2022/10/13 10:21:30;;;;;;;;;;;12.60;99.90;;;;;;4975983;28;1969;-61
2022/10/13 10:24:00;;;;;;;;;;;12.60;99.90;;;;;;4977318;28;982;-61
2022/10/13 10:26:35;;;;;;;;;;;12.60;99.90;;;;;;4976813;28;869;-62
2022/10/13 10:29:05;;;;;;;;;;;12.70;99.90;;;;;;4976341;28;1033;-61
2022/10/13 10:31:37;;;;;;;;;;;12.90;99.90;;;;;;4976552;28;1196;-62
2022/10/13 10:34:04;;;;;;;;;;;13.00;99.90;;;;;;4966672;28;1297;-62
2022/10/13 10:36:39;;;;;;;;;;;13.00;99.90;;;;;;4965394;28;1149;-62
2022/10/13 10:39:17;;;;;;;;;;;12.90;99.90;;;;;;4963547;28;1356;-62
2022/10/13 10:41:48;;;;;;;;;;;12.80;99.90;;;;;;4975119;28;1986;-62
2022/10/13 10:44:16;;;;;;;;;;;12.80;99.90;;;;;;4959131;28;1778;-62
2022/10/13 10:46:45;;;;;;;;;;;12.80;99.90;;;;;;4957539;28;1012;-62
2022/10/13 10:49:14;;;;;;;;;;;12.80;99.90;;;;;;4972173;28;1172;-62
2022/10/13 10:51:40;;;;;;;;;;;12.70;99.90;;;;;;4976508;28;1072;-62
2022/10/13 10:54:19;;;;;;;;;;;12.70;99.90;;;;;;4976563;28;1029;-62
2022/10/13 10:56:48;;;;;;;;;;;12.70;99.90;;;;;;4975346;28;1176;-62
2022/10/13 10:59:33;;;;;;;;;;;12.70;99.90;;;;;;4976651;28;954;-62
2022/10/13 11:02:09;;;;;;;;;;;12.70;99.90;;;;;;4976189;28;1922;-62
2022/10/13 11:04:39;;;;;;;;;;;12.70;99.90;;;;;;4975678;28;1079;-62
2022/10/13 11:07:09;;;;;;;;;;;12.70;99.90;;;;;;4976064;28;1163;-62
2022/10/13 11:09:56;;;;;;;;;;;12.70;99.90;;;;;;4975508;28;1083;-62
2022/10/13 11:12:22;;;;;;;;;;;12.80;99.90;;;;;;4976209;28;1326;-62
2022/10/13 11:15:07;;;;;;;;;;;12.90;99.90;;;;;;4975631;28;1206;-62
2022/10/13 11:17:35;;;;;;;;;;;12.90;99.90;;;;;;4974752;28;1017;-62
2022/10/13 11:20:23;;;;;;;;;;;12.90;99.90;;;;;;4976017;28;1077;-62
2022/10/13 11:22:56;;;;;;;;;;;12.90;99.90;;;;;;4975793;28;1910;-62
2022/10/13 11:25:34;;;;;;;;;;;12.90;99.90;;;;;;4975332;28;1009;-62
2022/10/13 11:28:19;;;;;;;;;;;12.90;99.90;;;;;;4976097;28;799;-62
2022/10/13 11:30:46;;;;;;;;;;;12.90;99.90;;;;;;4965725;28;1234;-62
2022/10/13 11:33:31;;;;;;;;;;;12.90;99.90;;;;;;4985331;28;1218;-62
2022/10/13 11:35:56;;;;;;;;;;;12.90;99.90;;;;;;4971909;28;1396;-62
2022/10/13 11:38:30;;;;;;;;;;;12.90;99.90;;;;;;4964017;28;1213;-62
2022/10/13 11:41:09;;;;;;;;;;;12.90;99.90;;;;;;4962395;28;1995;-62
2022/10/13 11:43:42;;;;;;;;;;;12.90;99.90;;;;;;4982943;28;1458;-62
2022/10/13 11:46:18;;;;;;;;;;;12.90;99.90;;;;;;4955579;28;1009;-62
2022/10/13 11:49:06;;;;;;;;;;;12.90;99.90;;;;;;4960461;28;1233;-62
2022/10/13 11:51:56;;;;;;;;;;;12.90;99.90;;;;;;4963876;28;1359;-62
2022/10/13 11:54:33;;;;;;;;;;;12.90;99.90;;;;;;4966935;28;1244;-62
2022/10/13 11:56:58;;;;;;;;;;;12.90;99.90;;;;;;4972758;28;1344;-62
2022/10/13 11:59:26;;;;;;;;;;;13.00;99.90;;;;;;4974551;28;1297;-62
2022/10/13 12:01:54;;;;;;;;;;;13.00;99.90;;;;;;4975049;28;1910;-62
2022/10/13 12:04:21;;;;;;;;;;;13.00;99.90;;;;;;4975348;28;1068;-62
2022/10/13 12:06:51;;;;;;;;;;;13.00;99.90;;;;;;4974364;28;1164;-62
2022/10/13 12:09:18;;;;;;;;;;;13.00;99.90;;;;;;4974653;28;1017;-62
2022/10/13 12:11:44;;;;;;;;;;;13.00;99.90;;;;;;4975195;28;1189;-62
2022/10/13 12:14:19;;;;;;;;;;;13.10;99.90;;;;;;4974447;28;1088;-62
2022/10/13 12:16:52;;;;;;;;;;;13.10;99.90;;;;;;4974455;28;1159;-62
2022/10/13 12:19:20;;;;;;;;;;;13.10;99.90;;;;;;4972325;28;1229;-62
2022/10/13 12:21:50;;;;;;;;;;;13.10;99.90;;;;;;4969881;28;1991;-62
2022/10/13 12:24:15;;;;;;;;;;;13.10;99.90;;;;;;4963817;28;1210;-62
2022/10/13 12:26:42;;;;;;;;;;;13.20;99.90;;;;;;4973509;28;1145;-62
2022/10/13 12:29:12;;;;;;;;;;;13.20;99.90;;;;;;4973441;28;838;-62
2022/10/13 12:31:40;;;;;;;;;;;13.20;99.90;;;;;;4967559;28;1245;-62
2022/10/13 12:34:16;;;;;;;;;;;13.30;99.90;;;;;;4964367;28;1297;-62
2022/10/13 12:36:44;;;;;;;;;;;13.30;99.90;;;;;;4966062;28;1221;-62
2022/10/13 12:39:12;;;;;;;;;;;13.40;99.90;;;;;;4962239;28;1311;-62
2022/10/13 12:41:40;;;;;;;;;;;13.40;99.90;;;;;;4964074;28;1907;-62
2022/10/13 12:44:07;;;;;;;;;;;13.50;99.90;;;;;;4965305;28;1327;-62
2022/10/13 12:46:34;;;;;;;;;;;13.50;99.90;;;;;;4965915;28;1308;-62
2022/10/13 12:49:03;;;;;;;;;;;13.50;99.90;;;;;;4963945;28;1217;-62
2022/10/13 12:51:30;;;;;;;;;;;13.50;99.90;;;;;;4970539;28;1246;-62
2022/10/13 12:53:56;;;;;;;;;;;13.50;99.90;;;;;;4974493;28;1072;-62
2022/10/13 12:56:27;;;;;;;;;;;13.50;99.90;;;;;;4973880;28;980;-62
2022/10/13 12:58:53;;;;;;;;;;;13.50;99.90;;;;;;4989446;28;854;-62
2022/10/13 13:01:24;;;;;;;;;;;13.50;99.90;;;;;;4973664;28;1967;-62
2022/10/13 13:03:55;;;;;;;;;;;13.50;99.90;;;;;;4964781;28;1253;-62
2022/10/13 13:06:23;;;;;;;;;;;13.50;99.90;;;;;;4963318;28;1307;-62
2022/10/13 13:09:07;;;;;;;;;;;13.60;99.90;;;;;;4964282;28;1288;-62
2022/10/13 13:11:34;;;;;;;;;;;13.60;99.90;;;;;;4965105;28;1234;-62
2022/10/13 13:14:32;;;;;;;;;;;13.60;99.90;;;;;;4964606;28;1213;-62
2022/10/13 13:17:21;;;;;;;;;;;13.60;99.90;;;;;;4961623;28;1406;-62
2022/10/13 13:19:48;;;;;;;;;;;13.60;99.90;;;;;;4965003;28;1113;-62
2022/10/13 13:22:14;;;;;;;;;;;13.60;99.90;;;;;;4964753;28;1911;-62
2022/10/13 13:24:41;;;;;;;;;;;13.50;99.90;;;;;;4964637;28;1293;-62
2022/10/13 13:27:23;;;;;;;;;;;13.60;99.90;;;;;;4965160;28;1320;-63
2022/10/13 13:29:48;;;;;;;;;;;13.60;99.90;;;;;;4963720;28;1218;-62
2022/10/13 13:32:15;;;;;;;;;;;13.50;99.90;;;;;;4962189;28;1343;-62
2022/10/13 13:34:41;;;;;;;;;;;13.50;99.90;;;;;;4967114;28;1348;-62
2022/10/13 13:37:21;;;;;;;;;;;13.50;99.90;;;;;;4948660;28;1206;-63
2022/10/13 13:39:47;;;;;;;;;;;13.60;99.90;;;;;;4944302;29;1294;-62
2022/10/13 13:42:13;;;;;;;;;;;13.70;99.90;;;;;;4949474;29;1907;-63
2022/10/13 13:44:42;;;;;;;;;;;13.70;99.90;;;;;;4945723;28;1301;-63
2022/10/13 13:47:13;;;;;;;;;;;13.80;99.90;;;;;;4948536;28;1190;-63
2022/10/13 13:49:38;;;;;;;;;;;13.80;99.90;;;;;;4949457;29;1379;-63
2022/10/13 13:52:04;;;;;;;;;;;13.70;99.90;;;;;;4947219;29;1281;-63
2022/10/13 13:54:30;;;;;;;;;;;13.70;99.90;;;;;;4948177;28;1300;-63
2022/10/13 13:56:55;;;;;;;;;;;13.70;99.90;;;;;;4947582;29;1286;-63
2022/10/13 13:59:24;;;;;;;;;;;13.80;99.90;;;;;;4946882;29;1217;-63
2022/10/13 14:01:51;;;;;;;;;;;13.80;99.90;;;;;;4949150;28;1903;-63
2022/10/13 14:04:20;;;;;;;;;;;13.90;99.90;;;;;;4947223;29;1323;-63
2022/10/13 14:06:46;;;;;;;;;;;13.90;99.90;;;;;;4947879;29;1368;-63
2022/10/13 14:09:12;;;;;;;;;;;14.00;99.90;;;;;;4949446;29;1231;-63
2022/10/13 14:11:37;;;;;;;;;;;14.00;99.90;;;;;;4949257;28;1233;-63
2022/10/13 14:14:03;;;;;;;;;;;14.00;99.90;;;;;;4946776;29;1336;-63
2022/10/13 14:16:29;;;;;;;;;;;14.00;99.90;;;;;;4962281;28;1300;-63
2022/10/13 14:18:55;;;;;;;;;;;14.00;99.90;;;;;;4948775;29;1281;-63
2022/10/13 14:21:23;;;;;;;;;;;14.00;99.90;;;;;;4944958;28;2246;-63
2022/10/13 14:23:49;;;;;;;;;;;14.10;99.90;;;;;;4947453;29;1422;-63
2022/10/13 14:26:14;;;;;;;;;;;14.10;99.90;;;;;;4951254;28;1198;-63
2022/10/13 14:28:41;;;;;;;;;;;14.10;99.90;;;;;;4947582;28;1291;-63
2022/10/13 14:31:07;;;;;;;;;;;14.10;99.90;;;;;;4947104;29;1373;-63
2022/10/13 14:33:34;;;;;;;;;;;14.20;99.90;;;;;;4944112;29;1287;-63
2022/10/13 14:36:00;;;;;;;;;;;14.20;99.90;;;;;;4967707;28;1600;-63
2022/10/13 14:38:26;;;;;;;;;;;14.10;99.90;;;;;;4976276;28;1206;-63